Wrightsboro, Texas
Current Conditions -  °F | °C
As of 12:35 PM on Tuesday 27 Jan 2015 (Local Time) from KT20 Reporting Station
Clear Clear  
Wind Chill: 77°   Ceiling: Unl
Heat Index: 77°   Visibility: 10mi
Dew Point: 42°   Wind: 6mph
Humidity: 29%   Direction: 290°WNW
Pressure: 30.17"   Gusts: NA
Location:  29.37°N, 97.56°W
Report Text: KT20 271835Z AUTO 29005KT 10SM CLR 25/06 A3017 RMK AO2 T02480058
Loading
Personal Weather Stations






























Interactive Weather Map New forecast layout! Learn more

10-Day Weather Forecast

Advertisements
Track Severe Weather on mobile